Time;durP1;ratioP1;P1;durP2;ratioP2;P2;SDS_P1;SDS_P2;PMS_P1;PMS_P2;Temp;Humidity;BMP_temperature;BMP_pressure;BME280_temperature;BME280_humidity;BME280_pressure;Samples;Min_cycle;Max_cycle;Signal;HPM_P1;HPM_P2
2023/12/25 00:01:19;;;;;;;210.63;30.27;;;;;;;;;;5049154;28;20399;-57
2023/12/25 00:03:45;;;;;;;238.03;34.60;;;;;;;;;;5048240;28;20211;-57
2023/12/25 00:06:11;;;;;;;258.67;40.63;;;;;;;;;;5039661;28;20227;-57
2023/12/25 00:08:37;;;;;;;220.87;32.80;;;;;;;;;;5048575;28;20557;-57
2023/12/25 00:11:03;;;;;;;249.07;39.20;;;;;;;;;;5039008;28;20211;-57
2023/12/25 00:13:29;;;;;;;281.97;44.30;;;;;;;;;;5044824;28;20248;-57
2023/12/25 00:15:55;;;;;;;274.00;42.70;;;;;;;;;;5045615;28;20585;-57
2023/12/25 00:18:21;;;;;;;245.73;36.33;;;;;;;;;;5039354;28;20261;-57
2023/12/25 00:20:47;;;;;;;242.07;35.90;;;;;;;;;;5054660;28;20219;-57
2023/12/25 00:23:13;;;;;;;259.60;43.80;;;;;;;;;;5043288;28;20226;-56
2023/12/25 00:25:38;;;;;;;200.57;28.87;;;;;;;;;;5039447;28;20326;-57
2023/12/25 00:28:05;;;;;;;225.63;33.53;;;;;;;;;;5029253;28;20293;-57
2023/12/25 00:30:31;;;;;;;263.13;37.83;;;;;;;;;;5036406;28;21372;-57
2023/12/25 00:32:57;;;;;;;270.10;41.33;;;;;;;;;;5043141;28;20197;-57
2023/12/25 00:35:23;;;;;;;298.73;42.73;;;;;;;;;;5039544;28;20230;-57
2023/12/25 00:37:49;;;;;;;238.40;35.07;;;;;;;;;;5041799;28;20607;-57
2023/12/25 00:40:15;;;;;;;240.30;34.30;;;;;;;;;;5035260;28;20627;-57
2023/12/25 00:42:41;;;;;;;250.43;39.67;;;;;;;;;;5045178;28;20232;-57
2023/12/25 00:45:07;;;;;;;259.53;37.40;;;;;;;;;;5042761;28;20266;-57
2023/12/25 00:47:33;;;;;;;257.07;39.33;;;;;;;;;;5032742;28;20751;-57
2023/12/25 00:49:59;;;;;;;337.17;51.73;;;;;;;;;;5041066;28;20214;-57
2023/12/25 00:52:25;;;;;;;275.70;39.90;;;;;;;;;;5041568;28;20310;-56
2023/12/25 00:54:51;;;;;;;263.27;37.47;;;;;;;;;;5031851;28;20298;-56
2023/12/25 00:57:17;;;;;;;287.50;42.23;;;;;;;;;;5034280;28;20199;-57
2023/12/25 00:59:43;;;;;;;249.83;35.20;;;;;;;;;;5040668;28;20223;-57
2023/12/25 01:02:08;;;;;;;220.07;31.87;;;;;;;;;;5026403;28;20224;-57
2023/12/25 01:04:34;;;;;;;235.73;34.80;;;;;;;;;;5020818;28;20211;-57
2023/12/25 01:07:00;;;;;;;231.70;33.10;;;;;;;;;;5028459;28;20217;-57
2023/12/25 01:09:26;;;;;;;370.10;58.70;;;;;;;;;;5032500;28;20211;-57
2023/12/25 01:11:52;;;;;;;295.13;43.13;;;;;;;;;;5047333;28;20587;-57
2023/12/25 01:14:18;;;;;;;261.37;37.17;;;;;;;;;;5040366;28;20211;-56
2023/12/25 01:16:44;;;;;;;204.50;30.30;;;;;;;;;;5037568;28;20223;-56
2023/12/25 01:19:12;;;;;;;226.20;33.93;;;;;;;;;;5041788;28;20227;-57
2023/12/25 01:21:38;;;;;;;280.37;42.70;;;;;;;;;;5040964;28;20175;-57
2023/12/25 01:24:04;;;;;;;205.70;30.03;;;;;;;;;;5039687;28;20179;-56
2023/12/25 01:26:30;;;;;;;258.47;37.83;;;;;;;;;;5043657;28;20692;-57
2023/12/25 01:28:56;;;;;;;228.37;31.67;;;;;;;;;;5035229;28;20218;-57
2023/12/25 01:31:23;;;;;;;299.93;46.47;;;;;;;;;;5025970;28;20215;-54
2023/12/25 01:33:49;;;;;;;221.23;31.77;;;;;;;;;;5036554;28;20697;-57
2023/12/25 01:36:15;;;;;;;221.00;30.77;;;;;;;;;;5035283;28;20203;-57
2023/12/25 01:38:41;;;;;;;169.73;24.50;;;;;;;;;;5044485;28;20275;-57
2023/12/25 01:41:07;;;;;;;243.37;34.07;;;;;;;;;;5041579;28;20211;-57
2023/12/25 01:43:33;;;;;;;267.03;42.57;;;;;;;;;;5042754;28;20222;-57
2023/12/25 01:45:59;;;;;;;255.93;37.83;;;;;;;;;;5042975;28;20219;-56
2023/12/25 01:48:26;;;;;;;253.73;38.57;;;;;;;;;;5039520;28;20701;-57
2023/12/25 01:50:53;;;;;;;235.27;33.60;;;;;;;;;;5044829;28;20511;-57
2023/12/25 01:53:20;;;;;;;315.33;49.90;;;;;;;;;;5040787;28;20689;-58
2023/12/25 01:55:46;;;;;;;268.93;38.43;;;;;;;;;;5042875;28;20472;-57
2023/12/25 01:58:12;;;;;;;182.40;26.10;;;;;;;;;;5045022;28;20216;-56
2023/12/25 02:00:38;;;;;;;245.97;36.70;;;;;;;;;;5037115;28;20188;-54
2023/12/25 02:03:04;;;;;;;229.27;33.50;;;;;;;;;;5044649;28;20666;-55
2023/12/25 02:05:30;;;;;;;297.30;46.57;;;;;;;;;;5035647;28;20711;-55
2023/12/25 02:07:56;;;;;;;280.07;39.93;;;;;;;;;;5039548;28;20215;-55
2023/12/25 02:10:26;;;;;;;372.37;57.73;;;;;;;;;;5037608;28;20825;-55
2023/12/25 02:12:53;;;;;;;244.10;34.60;;;;;;;;;;5045614;28;20222;-55
2023/12/25 02:15:19;;;;;;;275.30;41.07;;;;;;;;;;5036110;28;20603;-54
2023/12/25 02:17:45;;;;;;;235.10;32.50;;;;;;;;;;5051577;28;20937;-54
2023/12/25 02:20:12;;;;;;;232.40;33.27;;;;;;;;;;5033005;28;20547;-55
2023/12/25 02:22:38;;;;;;;234.23;34.40;;;;;;;;;;5033125;28;20692;-55
2023/12/25 02:25:10;;;;;;;281.30;41.23;;;;;;;;;;5035534;28;20219;-55
2023/12/25 02:33:46;;;;;;;229.00;32.80;;;;;;;;;;5074726;28;20178;-54
2023/12/25 02:36:13;;;;;;;340.80;54.00;;;;;;;;;;5045581;28;20207;-55
2023/12/25 02:38:39;;;;;;;195.73;27.67;;;;;;;;;;5070107;28;20230;-55
2023/12/25 02:41:06;;;;;;;230.47;33.87;;;;;;;;;;5060384;28;20219;-55
2023/12/25 02:43:32;;;;;;;257.07;36.87;;;;;;;;;;5069626;28;20301;-55
2023/12/25 02:45:58;;;;;;;269.17;38.40;;;;;;;;;;5071635;28;20311;-55
2023/12/25 02:48:25;;;;;;;252.87;35.77;;;;;;;;;;5068255;28;20205;-55
2023/12/25 02:50:52;;;;;;;294.50;43.53;;;;;;;;;;5074229;28;20277;-55
2023/12/25 02:53:18;;;;;;;221.37;33.27;;;;;;;;;;5071079;28;20537;-55
2023/12/25 02:55:45;;;;;;;236.60;36.17;;;;;;;;;;5069331;28;20421;-55
2023/12/25 02:58:11;;;;;;;232.23;33.07;;;;;;;;;;5048076;28;20271;-54
2023/12/25 03:00:37;;;;;;;254.17;36.00;;;;;;;;;;5065903;28;20358;-55
2023/12/25 03:03:03;;;;;;;247.73;35.30;;;;;;;;;;5070679;28;20801;-55
2023/12/25 03:05:29;;;;;;;282.50;42.00;;;;;;;;;;5068669;28;20622;-55
2023/12/25 03:07:56;;;;;;;372.57;55.77;;;;;;;;;;5069214;28;20226;-55
2023/12/25 03:10:22;;;;;;;281.47;41.57;;;;;;;;;;5072354;28;20268;-55
2023/12/25 03:12:48;;;;;;;191.40;28.03;;;;;;;;;;5055681;28;20728;-54
2023/12/25 03:15:14;;;;;;;252.73;37.87;;;;;;;;;;5070129;28;20509;-54
2023/12/25 03:17:41;;;;;;;239.30;35.37;;;;;;;;;;5062327;28;20592;-55
2023/12/25 03:20:07;;;;;;;247.50;36.53;;;;;;;;;;5050138;28;20431;-55
2023/12/25 03:22:34;;;;;;;265.50;37.97;;;;;;;;;;5074901;28;20218;-55
2023/12/25 03:25:01;;;;;;;235.50;32.93;;;;;;;;;;5075062;28;20416;-54
2023/12/25 03:27:27;;;;;;;258.83;39.97;;;;;;;;;;5065148;28;20203;-55
2023/12/25 03:29:53;;;;;;;209.70;31.93;;;;;;;;;;5063114;28;20283;-54
2023/12/25 03:32:19;;;;;;;250.27;35.50;;;;;;;;;;5074766;28;20264;-55
2023/12/25 03:34:47;;;;;;;189.70;27.33;;;;;;;;;;5047462;28;20317;-55
2023/12/25 03:37:13;;;;;;;255.10;35.87;;;;;;;;;;5067910;28;20256;-55
2023/12/25 03:39:39;;;;;;;323.77;47.17;;;;;;;;;;5063134;28;21638;-55
2023/12/25 03:42:06;;;;;;;251.07;35.30;;;;;;;;;;5067285;28;20267;-55
2023/12/25 03:44:32;;;;;;;238.20;34.33;;;;;;;;;;5078422;28;20580;-55
2023/12/25 03:46:58;;;;;;;276.30;38.63;;;;;;;;;;5066841;28;20735;-55
2023/12/25 03:49:24;;;;;;;266.20;39.17;;;;;;;;;;5049919;28;20230;-55
2023/12/25 03:51:50;;;;;;;242.20;32.97;;;;;;;;;;5058512;28;20227;-55
2023/12/25 03:54:17;;;;;;;237.20;34.80;;;;;;;;;;5071844;28;20296;-55
2023/12/25 03:56:43;;;;;;;239.93;33.30;;;;;;;;;;5069606;28;20234;-55
2023/12/25 03:59:11;;;;;;;274.37;38.77;;;;;;;;;;5060719;28;20872;-55
2023/12/25 04:01:41;;;;;;;313.20;44.67;;;;;;;;;;5056525;28;20215;-55
2023/12/25 04:04:07;;;;;;;247.00;34.43;;;;;;;;;;5071456;28;20630;-55
2023/12/25 04:06:33;;;;;;;227.67;33.20;;;;;;;;;;5064040;28;20206;-55
2023/12/25 04:08:59;;;;;;;198.27;27.80;;;;;;;;;;5066503;28;20229;-55
2023/12/25 04:11:29;;;;;;;256.00;37.43;;;;;;;;;;5064527;28;20219;-56
2023/12/25 04:13:56;;;;;;;273.73;38.03;;;;;;;;;;5077720;28;20309;-55
2023/12/25 04:16:26;;;;;;;230.90;32.73;;;;;;;;;;5067305;28;20515;-55
2023/12/25 04:18:53;;;;;;;231.60;33.33;;;;;;;;;;5060222;28;20217;-55
2023/12/25 04:21:23;;;;;;;232.77;32.60;;;;;;;;;;5072139;28;20181;-55
2023/12/25 04:23:50;;;;;;;205.00;29.10;;;;;;;;;;5078752;28;20224;-55
2023/12/25 04:26:17;;;;;;;243.80;34.83;;;;;;;;;;5060576;28;20225;-55
2023/12/25 04:28:45;;;;;;;256.80;37.10;;;;;;;;;;5076030;28;20222;-55
2023/12/25 04:31:12;;;;;;;221.27;30.17;;;;;;;;;;5070994;28;20210;-55
2023/12/25 04:33:38;;;;;;;288.17;41.83;;;;;;;;;;5062130;28;20228;-55
2023/12/25 04:36:05;;;;;;;299.23;42.60;;;;;;;;;;5070019;28;20210;-56
2023/12/25 04:38:32;;;;;;;260.17;35.50;;;;;;;;;;5075021;28;20221;-55
2023/12/25 04:40:58;;;;;;;340.10;50.77;;;;;;;;;;5065238;28;20292;-55
2023/12/25 04:43:25;;;;;;;262.77;38.63;;;;;;;;;;5077470;28;20206;-55
2023/12/25 04:45:51;;;;;;;209.90;29.47;;;;;;;;;;5063234;28;20214;-55
2023/12/25 04:48:17;;;;;;;237.57;36.03;;;;;;;;;;5073820;28;20338;-55
2023/12/25 04:50:44;;;;;;;296.23;42.83;;;;;;;;;;5067637;28;20739;-55
2023/12/25 04:53:10;;;;;;;261.03;37.03;;;;;;;;;;5074535;28;20311;-55
2023/12/25 04:55:40;;;;;;;343.27;49.90;;;;;;;;;;5062267;28;20532;-56
2023/12/25 04:58:06;;;;;;;244.53;34.43;;;;;;;;;;5072160;28;20351;-55
2023/12/25 05:00:32;;;;;;;268.43;39.40;;;;;;;;;;5064051;28;20210;-55
2023/12/25 05:02:59;;;;;;;220.83;31.07;;;;;;;;;;5077163;28;20208;-56
2023/12/25 05:05:25;;;;;;;217.30;30.83;;;;;;;;;;5062726;28;20918;-55
2023/12/25 05:07:52;;;;;;;225.63;32.37;;;;;;;;;;5073265;28;20724;-55
2023/12/25 05:10:18;;;;;;;238.30;33.03;;;;;;;;;;5055465;28;20947;-55
2023/12/25 05:12:44;;;;;;;272.70;38.93;;;;;;;;;;5071537;28;20664;-55
2023/12/25 05:15:10;;;;;;;301.80;43.97;;;;;;;;;;5063128;28;21320;-55
2023/12/25 05:17:36;;;;;;;260.97;38.30;;;;;;;;;;5069498;28;20272;-55
2023/12/25 05:20:04;;;;;;;246.87;34.33;;;;;;;;;;5078823;28;20206;-56
2023/12/25 05:22:30;;;;;;;233.20;33.07;;;;;;;;;;5066957;28;20221;-55
2023/12/25 05:24:56;;;;;;;251.93;35.57;;;;;;;;;;5070017;28;20459;-56
2023/12/25 05:27:22;;;;;;;229.07;32.77;;;;;;;;;;5062557;28;20231;-56
2023/12/25 05:29:48;;;;;;;226.30;32.93;;;;;;;;;;5066442;28;22222;-56
2023/12/25 05:32:14;;;;;;;249.07;35.30;;;;;;;;;;5068559;28;20288;-55
2023/12/25 05:34:41;;;;;;;241.73;34.33;;;;;;;;;;5055475;28;20214;-55
2023/12/25 05:37:07;;;;;;;252.90;35.90;;;;;;;;;;5060018;28;20575;-55
2023/12/25 05:39:33;;;;;;;261.93;37.97;;;;;;;;;;5072226;28;20206;-55
2023/12/25 05:41:59;;;;;;;173.50;24.40;;;;;;;;;;5073484;28;20568;-55
2023/12/25 05:44:25;;;;;;;236.17;37.73;;;;;;;;;;5073285;28;20214;-55
2023/12/25 05:46:52;;;;;;;271.60;43.07;;;;;;;;;;5061537;28;20674;-55
2023/12/25 05:49:18;;;;;;;230.43;32.03;;;;;;;;;;5077169;28;20617;-55
2023/12/25 05:51:44;;;;;;;231.13;32.87;;;;;;;;;;5061441;28;21248;-55
2023/12/25 05:54:10;;;;;;;255.23;37.00;;;;;;;;;;5077011;28;21854;-55
2023/12/25 05:56:36;;;;;;;239.80;33.97;;;;;;;;;;5066476;28;20272;-55
2023/12/25 05:59:03;;;;;;;214.13;30.33;;;;;;;;;;5073637;28;20215;-55
2023/12/25 06:01:29;;;;;;;253.13;34.87;;;;;;;;;;5075067;28;20216;-56
2023/12/25 06:03:56;;;;;;;188.63;27.67;;;;;;;;;;5078726;28;20759;-58
2023/12/25 06:06:22;;;;;;;370.90;62.80;;;;;;;;;;5064341;28;20467;-56
2023/12/25 06:08:48;;;;;;;267.07;41.60;;;;;;;;;;5072183;28;20234;-55
2023/12/25 06:11:14;;;;;;;226.63;32.27;;;;;;;;;;5065050;28;20217;-55
2023/12/25 06:13:41;;;;;;;278.37;40.43;;;;;;;;;;5065730;28;20214;-55
2023/12/25 06:16:07;;;;;;;263.97;37.57;;;;;;;;;;5073948;28;20224;-56
2023/12/25 06:18:33;;;;;;;266.73;39.07;;;;;;;;;;5076373;28;20182;-55
2023/12/25 06:20:59;;;;;;;249.13;35.83;;;;;;;;;;5075504;28;20178;-55
2023/12/25 06:23:25;;;;;;;248.60;36.80;;;;;;;;;;5078244;28;20747;-55
2023/12/25 06:25:52;;;;;;;250.83;34.60;;;;;;;;;;5060566;28;20637;-55
2023/12/25 06:28:18;;;;;;;261.20;37.83;;;;;;;;;;5064846;28;20580;-55
2023/12/25 06:30:44;;;;;;;233.60;33.80;;;;;;;;;;5078352;28;20178;-55
2023/12/25 06:33:10;;;;;;;248.70;36.17;;;;;;;;;;5071806;28;20298;-55
2023/12/25 06:38:09;;;;;;;229.97;33.10;;;;;;;;;;5047595;27;20670;-55
2023/12/25 06:40:35;;;;;;;252.23;35.47;;;;;;;;;;5015217;28;22958;-57
2023/12/25 06:43:02;;;;;;;308.23;46.23;;;;;;;;;;5015421;28;20220;-57
2023/12/25 06:45:27;;;;;;;211.50;33.20;;;;;;;;;;5014748;28;20266;-57
2023/12/25 06:47:54;;;;;;;237.83;37.03;;;;;;;;;;5014844;28;20690;-57
2023/12/25 06:50:20;;;;;;;239.10;36.87;;;;;;;;;;5015871;28;20220;-54
2023/12/25 06:52:46;;;;;;;209.93;32.67;;;;;;;;;;5013950;28;20216;-54
2023/12/25 06:55:13;;;;;;;196.93;30.33;;;;;;;;;;5014812;28;20395;-54
2023/12/25 06:57:39;;;;;;;233.23;36.63;;;;;;;;;;5013797;28;20678;-54
2023/12/25 07:00:05;;;;;;;181.43;28.73;;;;;;;;;;5015488;28;20544;-54
2023/12/25 07:02:32;;;;;;;213.13;32.63;;;;;;;;;;5012786;28;20380;-54
2023/12/25 07:04:58;;;;;;;183.50;28.70;;;;;;;;;;5012252;28;20235;-54
2023/12/25 07:07:24;;;;;;;166.83;29.50;;;;;;;;;;5014739;28;20778;-55
2023/12/25 07:09:50;;;;;;;221.07;38.53;;;;;;;;;;5010181;28;20236;-54
2023/12/25 07:12:16;;;;;;;222.00;38.00;;;;;;;;;;5017989;28;20199;-54
2023/12/25 07:14:45;;;;;;;181.73;29.23;;;;;;;;;;5015180;28;20216;-54
2023/12/25 07:17:12;;;;;;;147.83;23.30;;;;;;;;;;5013937;28;20229;-54
2023/12/25 07:19:39;;;;;;;220.23;33.50;;;;;;;;;;5014983;28;20216;-54
2023/12/25 07:22:06;;;;;;;174.13;27.93;;;;;;;;;;5015605;28;20227;-52
2023/12/25 07:24:33;;;;;;;197.83;30.53;;;;;;;;;;5012895;28;20274;-52
2023/12/25 07:26:59;;;;;;;260.00;41.20;;;;;;;;;;4988185;28;20208;-52
2023/12/25 07:29:26;;;;;;;298.23;49.23;;;;;;;;;;4999719;28;20208;-52
2023/12/25 07:31:52;;;;;;;203.07;32.53;;;;;;;;;;5011111;28;20216;-52
2023/12/25 07:34:19;;;;;;;204.47;31.10;;;;;;;;;;5012651;28;20220;-53
2023/12/25 07:36:45;;;;;;;171.50;27.03;;;;;;;;;;5010274;28;22061;-52
2023/12/25 07:39:14;;;;;;;189.07;29.73;;;;;;;;;;5011865;28;20243;-52
2023/12/25 07:41:46;;;;;;;255.10;41.93;;;;;;;;;;4999506;28;20368;-53
2023/12/25 07:44:18;;;;;;;243.93;38.30;;;;;;;;;;5004701;28;20398;-52
2023/12/25 07:46:44;;;;;;;230.47;36.17;;;;;;;;;;5004781;28;20410;-52
2023/12/25 07:49:12;;;;;;;228.97;36.33;;;;;;;;;;4996199;28;20394;-52
2023/12/25 07:51:39;;;;;;;176.33;28.30;;;;;;;;;;4994090;28;20591;-52
2023/12/25 07:54:05;;;;;;;203.33;32.37;;;;;;;;;;4996467;28;20784;-52
2023/12/25 07:56:31;;;;;;;183.67;30.17;;;;;;;;;;4991967;28;20770;-52
2023/12/25 07:58:58;;;;;;;239.70;37.50;;;;;;;;;;4990164;28;20241;-53
2023/12/25 08:01:24;;;;;;;198.87;30.67;;;;;;;;;;4993902;28;20753;-52
2023/12/25 08:03:50;;;;;;;210.90;33.63;;;;;;;;;;4995139;28;20380;-52
2023/12/25 08:06:17;;;;;;;250.47;39.57;;;;;;;;;;4996614;28;20212;-53
2023/12/25 08:08:44;;;;;;;180.13;30.30;;;;;;;;;;5029345;28;20279;-52
2023/12/25 08:11:19;;;;;;;164.20;26.07;;;;;;;;;;4987908;28;20224;-52
2023/12/25 08:13:46;;;;;;;188.80;29.40;;;;;;;;;;4990736;28;20213;-52
2023/12/25 08:16:12;;;;;;;231.40;37.17;;;;;;;;;;4991189;28;20228;-52
2023/12/25 08:18:39;;;;;;;190.30;31.53;;;;;;;;;;4997301;28;20224;-52
2023/12/25 08:21:07;;;;;;;167.50;26.80;;;;;;;;;;4995823;28;20557;-52
2023/12/25 08:23:33;;;;;;;220.57;36.47;;;;;;;;;;4991702;28;20224;-52
2023/12/25 08:26:00;;;;;;;211.53;35.63;;;;;;;;;;4991944;28;20235;-52
2023/12/25 08:28:47;;;;;;;115.33;16.57;;;;;;;;;;5011220;28;20271;-53
2023/12/25 08:31:13;;;;;;;220.40;36.30;;;;;;;;;;4990907;28;20217;-52
2023/12/25 08:33:39;;;;;;;279.77;46.77;;;;;;;;;;4992455;28;20239;-52
2023/12/25 08:36:05;;;;;;;246.37;40.90;;;;;;;;;;4995197;28;20785;-52
2023/12/25 08:38:31;;;;;;;283.73;47.97;;;;;;;;;;4990328;28;20686;-52
2023/12/25 08:40:57;;;;;;;218.17;35.03;;;;;;;;;;4993798;28;20220;-52
2023/12/25 08:43:23;;;;;;;230.80;41.47;;;;;;;;;;4986740;28;20224;-52
2023/12/25 08:45:49;;;;;;;284.60;48.70;;;;;;;;;;4988780;28;21748;-54
2023/12/25 08:48:15;;;;;;;179.87;28.93;;;;;;;;;;4999688;28;20181;-52
2023/12/25 08:50:41;;;;;;;171.57;29.37;;;;;;;;;;4993773;28;20212;-53
2023/12/25 08:53:08;;;;;;;241.37;38.80;;;;;;;;;;4992656;28;20251;-53
2023/12/25 08:55:34;;;;;;;201.10;32.33;;;;;;;;;;4992456;28;20224;-54
2023/12/25 08:58:00;;;;;;;242.77;39.90;;;;;;;;;;5003421;28;20213;-53
2023/12/25 09:00:25;;;;;;;217.47;34.77;;;;;;;;;;4996402;28;20240;-53
2023/12/25 09:02:51;;;;;;;206.10;34.37;;;;;;;;;;5000830;28;20991;-53
2023/12/25 09:05:18;;;;;;;175.37;28.23;;;;;;;;;;4999405;28;20391;-53
2023/12/25 09:07:44;;;;;;;227.13;39.07;;;;;;;;;;4999899;28;20247;-53
2023/12/25 09:10:10;;;;;;;227.00;37.50;;;;;;;;;;5007725;28;20217;-52
2023/12/25 09:12:36;;;;;;;238.20;37.63;;;;;;;;;;4994588;28;20177;-53
2023/12/25 09:15:04;;;;;;;299.27;52.63;;;;;;;;;;4994775;28;20604;-53
2023/12/25 09:17:30;;;;;;;226.53;35.97;;;;;;;;;;4997907;28;20270;-52
2023/12/25 09:19:56;;;;;;;239.63;37.40;;;;;;;;;;4997924;28;20266;-54
2023/12/25 09:22:24;;;;;;;233.73;40.33;;;;;;;;;;4997363;28;20718;-53
2023/12/25 09:24:52;;;;;;;223.77;35.90;;;;;;;;;;4997197;28;20591;-53
2023/12/25 09:27:18;;;;;;;209.00;35.60;;;;;;;;;;4997587;28;20694;-52
2023/12/25 09:29:44;;;;;;;230.90;39.43;;;;;;;;;;4996556;28;20221;-53
2023/12/25 09:32:10;;;;;;;188.10;29.63;;;;;;;;;;4996020;28;20738;-53
2023/12/25 09:34:37;;;;;;;199.07;30.40;;;;;;;;;;4997125;28;20295;-53
2023/12/25 09:37:03;;;;;;;264.10;41.80;;;;;;;;;;4998148;28;20216;-53
2023/12/25 09:39:29;;;;;;;311.03;55.00;;;;;;;;;;4995872;28;20248;-53
2023/12/25 09:41:55;;;;;;;235.03;40.43;;;;;;;;;;4998232;28;20173;-53
2023/12/25 09:44:21;;;;;;;225.20;37.20;;;;;;;;;;4996395;28;20461;-53
2023/12/25 09:46:47;;;;;;;221.03;37.53;;;;;;;;;;4996686;28;20260;-53
2023/12/25 09:49:14;;;;;;;186.13;29.87;;;;;;;;;;4992721;28;20212;-52
2023/12/25 09:51:41;;;;;;;208.63;34.00;;;;;;;;;;4997511;28;20695;-52
2023/12/25 09:54:06;;;;;;;190.83;30.23;;;;;;;;;;4997583;28;20651;-53
2023/12/25 09:56:35;;;;;;;188.40;31.37;;;;;;;;;;4996926;28;20762;-53
2023/12/25 09:59:02;;;;;;;213.40;36.30;;;;;;;;;;4993623;28;20721;-53
2023/12/25 10:01:29;;;;;;;225.13;36.87;;;;;;;;;;4997725;28;20223;-53
2023/12/25 10:03:55;;;;;;;233.27;36.97;;;;;;;;;;4995630;28;20258;-53
2023/12/25 10:06:21;;;;;;;171.10;28.00;;;;;;;;;;4993002;28;20248;-52
2023/12/25 10:08:47;;;;;;;226.40;37.63;;;;;;;;;;4995885;28;20221;-52
2023/12/25 10:11:14;;;;;;;242.03;41.53;;;;;;;;;;4996835;28;20224;-52
2023/12/25 10:13:41;;;;;;;207.37;32.80;;;;;;;;;;4996814;28;20300;-53
2023/12/25 10:16:07;;;;;;;199.00;32.90;;;;;;;;;;4987312;28;20631;-52
2023/12/25 10:18:33;;;;;;;225.30;35.83;;;;;;;;;;4996473;28;20528;-53
2023/12/25 10:21:04;;;;;;;234.47;39.63;;;;;;;;;;4997529;28;20188;-52
2023/12/25 10:23:31;;;;;;;234.27;39.60;;;;;;;;;;4998796;28;20220;-53
2023/12/25 10:25:58;;;;;;;237.43;37.20;;;;;;;;;;5004913;28;20596;-53
2023/12/25 10:28:28;;;;;;;216.40;36.37;;;;;;;;;;4992862;28;20209;-53
2023/12/25 10:31:00;;;;;;;284.13;48.70;;;;;;;;;;4995143;28;20480;-53
2023/12/25 10:33:26;;;;;;;224.73;37.37;;;;;;;;;;4998252;28;20643;-52
2023/12/25 10:36:04;;;;;;;271.77;48.33;;;;;;;;;;4995790;28;20215;-52
2023/12/25 10:38:37;;;;;;;186.37;31.73;;;;;;;;;;4997123;28;20208;-53
2023/12/25 10:41:18;;;;;;;245.90;43.97;;;;;;;;;;4990261;28;20632;-53
2023/12/25 10:43:44;;;;;;;186.53;32.37;;;;;;;;;;4996676;28;20231;-52
2023/12/25 10:46:10;;;;;;;180.10;32.40;;;11.00;99.90;;;;;;4992364;28;20230;-52
2023/12/25 10:48:37;;;;;;;207.23;38.37;;;10.70;1.00;;;;;;4992999;28;20173;-52
2023/12/25 10:51:04;;;;;;;204.53;36.67;;;;;;;;;;4992241;28;20208;-53
2023/12/25 10:53:30;;;;;;;265.20;50.57;;;;;;;;;;4996225;28;20251;-52
2023/12/25 10:55:56;;;;;;;234.83;42.50;;;;;;;;;;4995197;28;20212;-51
2023/12/25 10:58:22;;;;;;;189.60;32.03;;;;;;;;;;5028334;28;20221;-51
2023/12/25 11:00:51;;;;;;;188.37;31.93;;;;;;;;;;4996065;28;20290;-51
2023/12/25 11:03:17;;;;;;;246.17;43.00;;;;;;;;;;4993948;28;20848;-50
2023/12/25 11:05:44;;;;;;;227.03;38.37;;;;;;;;;;4994929;28;20320;-51
2023/12/25 11:08:11;;;;;;;223.67;36.20;;;;;;;;;;4993260;28;20225;-51
2023/12/25 11:10:37;;;;;;;227.23;36.80;;;;;;;;;;4991603;28;20220;-51
2023/12/25 11:13:03;;;;;;;231.37;39.77;;;;;;;;;;4991383;28;20235;-51
2023/12/25 11:15:29;;;;;;;189.50;30.83;;;;;;;;;;4994020;28;20195;-51
2023/12/25 11:17:56;;;;;;;249.20;40.27;;;;;;;;;;4995814;28;20225;-51
2023/12/25 11:20:22;;;;;;;199.43;32.03;;;;;;;;;;4996278;28;20303;-51
2023/12/25 11:22:48;;;;;;;223.57;38.10;;;;;;;;;;4996231;28;20223;-51
2023/12/25 11:25:18;;;;;;;227.90;38.67;;;;;;;;;;4997450;28;20587;-52
2023/12/25 11:27:51;;;;;;;215.43;35.10;;;;;;;;;;4999876;28;21217;-51
2023/12/25 11:30:18;;;;;;;283.07;47.77;;;;;;;;;;5001096;28;20184;-51
2023/12/25 11:32:48;;;;;;;253.27;43.50;;;;;;;;;;5004145;28;20217;-51
2023/12/25 11:35:14;;;;;;;195.37;32.20;;;;;;;;;;4999018;28;20362;-51
2023/12/25 11:37:40;;;;;;;300.30;56.63;;;;;;;;;;4992770;28;20236;-51
2023/12/25 11:40:07;;;;;;;206.23;34.57;;;;;;;;;;4995418;28;20220;-50
2023/12/25 11:42:34;;;;;;;272.93;46.70;;;;;;;;;;4997046;28;20714;-50
2023/12/25 11:45:01;;;;;;;295.17;53.47;;;;;;;;;;4994628;28;21206;-50
2023/12/25 11:47:28;;;;;;;273.37;45.73;;;;;;;;;;4995544;28;20235;-51
2023/12/25 11:49:54;;;;;;;197.53;32.57;;;;;;;;;;5000047;28;20278;-50
2023/12/25 11:52:39;;;;;;;230.87;39.63;;;;;;;;;;4998349;28;20241;-51
2023/12/25 11:55:05;;;;;;;193.30;33.13;;;;;;;;;;4995699;28;20489;-51
2023/12/25 11:57:31;;;;;;;269.20;46.70;;;;;;;;;;5001406;28;20205;-51
2023/12/25 11:59:57;;;;;;;206.57;33.07;;;;;;;;;;4994467;28;20177;-51
2023/12/25 12:02:23;;;;;;;210.03;34.13;;;;;;;;;;5001250;28;20610;-51
2023/12/25 12:04:49;;;;;;;189.17;30.17;;;;;;;;;;5000615;28;20355;-52
2023/12/25 12:07:15;;;;;;;189.20;30.23;;;;;;;;;;5001145;28;20312;-52
2023/12/25 12:09:41;;;;;;;174.83;29.17;;;;;;;;;;4996789;28;20188;-51
2023/12/25 12:12:07;;;;;;;229.27;38.20;;;;;;;;;;4997252;28;20242;-51
2023/12/25 12:14:33;;;;;;;190.07;29.20;;;;;;;;;;5000134;28;20220;-51
2023/12/25 12:16:59;;;;;;;192.67;33.53;;;;;;;;;;4998822;28;20229;-51
2023/12/25 12:19:26;;;;;;;304.87;55.13;;;;;;;;;;4999716;28;20304;-51
2023/12/25 12:21:52;;;;;;;265.70;44.90;;;;;;;;;;4997067;28;20214;-52
2023/12/25 12:24:25;;;;;;;258.80;44.00;;;;;;;;;;4995597;28;20579;-51
2023/12/25 12:26:51;;;;;;;183.77;29.40;;;;;;;;;;4981471;28;20229;-51
2023/12/25 12:29:17;;;;;;;207.10;34.43;;;;;;;;;;4992413;28;20552;-51
2023/12/25 12:31:43;;;;;;;237.67;41.07;;;;;;;;;;5002780;28;20282;-51
2023/12/25 12:34:09;;;;;;;267.73;47.07;;;;;;;;;;4996994;28;20217;-51
2023/12/25 12:36:35;;;;;;;200.17;32.13;;;;;;;;;;4998485;28;20262;-51
2023/12/25 12:39:01;;;;;;;229.70;37.57;;;;;;;;;;4998667;28;20377;-51
2023/12/25 12:41:27;;;;;;;261.10;43.27;;;;;;;;;;4993678;28;20307;-51
2023/12/25 12:43:58;;;;;;;213.50;33.87;;;;;;;;;;4998999;28;20789;-51
2023/12/25 12:46:24;;;;;;;165.13;26.23;;;;;;;;;;4997698;28;20225;-51
2023/12/25 12:48:50;;;;;;;160.83;25.33;;;;;;;;;;5000457;28;20243;-52
2023/12/25 12:51:16;;;;;;;244.43;39.20;;;;;;;;;;4999715;28;20235;-52
2023/12/25 12:53:42;;;;;;;183.53;31.00;;;;;;;;;;4998148;28;20594;-52
2023/12/25 12:56:11;;;;;;;211.40;33.03;;;;;;;;;;4994690;28;20588;-52
2023/12/25 12:58:37;;;;;;;219.83;35.30;;;;;;;;;;4998499;28;20259;-52
2023/12/25 13:01:03;;;;;;;263.13;44.37;;;;;;;;;;4995249;28;20291;-52
2023/12/25 13:03:29;;;;;;;230.03;39.67;;;;;;;;;;5000449;28;20644;-52
2023/12/25 13:05:54;;;;;;;199.00;31.30;;;;;;;;;;5000911;28;20201;-52
2023/12/25 13:08:20;;;;;;;180.93;30.40;;;;;;;;;;4999130;28;20268;-52
2023/12/25 13:10:46;;;;;;;175.33;28.63;;;;;;;;;;4997904;28;20221;-51
2023/12/25 13:13:12;;;;;;;211.20;37.10;;;;;;;;;;4998824;28;20607;-51
2023/12/25 13:15:38;;;;;;;222.93;36.00;;;;;;;;;;4997109;28;20456;-52
2023/12/25 13:18:05;;;;;;;235.57;39.03;;;;;;;;;;4995981;28;20648;-52
2023/12/25 13:20:31;;;;;;;223.30;36.40;;;;;;;;;;4999608;28;20219;-51
2023/12/25 13:22:57;;;;;;;269.57;46.20;;;;;;;;;;4997277;28;20353;-51
2023/12/25 13:25:23;;;;;;;184.80;29.53;;;;;;;;;;4997437;28;20217;-52
2023/12/25 13:27:49;;;;;;;186.17;30.10;;;;;;;;;;4999457;28;20232;-51
2023/12/25 13:30:15;;;;;;;183.40;30.30;;;;;;;;;;4997441;28;20189;-52
2023/12/25 13:32:42;;;;;;;240.10;38.93;;;;;;;;;;4997053;28;20221;-52
2023/12/25 13:35:08;;;;;;;227.93;38.33;;;;;;;;;;4996785;28;20258;-52
2023/12/25 13:37:34;;;;;;;176.87;29.07;;;;;;;;;;4998165;28;20228;-52
2023/12/25 13:40:01;;;;;;;170.40;27.70;;;;;;;;;;4995746;28;20258;-52
2023/12/25 13:42:30;;;;;;;202.13;35.30;;;;;;;;;;5000257;28;20197;-52
2023/12/25 13:44:57;;;;;;;236.87;39.03;;;;;;;;;;5000475;28;20177;-51
2023/12/25 13:47:23;;;;;;;205.47;32.83;;;;;;;;;;4999919;28;20644;-52
2023/12/25 13:49:49;;;;;;;187.60;30.00;;;;;;;;;;5003140;28;20559;-52
2023/12/25 13:52:15;;;;;;;281.03;48.07;;;;;;;;;;4996442;28;20655;-51
2023/12/25 13:54:41;;;;;;;186.67;31.17;;;;;;;;;;4996797;28;20185;-52
2023/12/25 13:57:07;;;;;;;233.77;38.93;;;;;;;;;;5000791;28;20213;-51
2023/12/25 13:59:33;;;;;;;181.50;28.73;;;;;;;;;;5003668;28;20232;-52
2023/12/25 14:01:59;;;;;;;268.20;43.80;;;;;;;;;;4997143;28;20627;-51
2023/12/25 14:04:25;;;;;;;209.17;32.70;;;;;;;;;;4998055;28;20605;-51
2023/12/25 14:06:51;;;;;;;188.93;29.23;;;;;;;;;;5002293;28;20239;-51
2023/12/25 14:09:17;;;;;;;312.97;53.73;;;;;;;;;;4992382;28;20600;-51